sensor_id;sensor_type;location;lat;lon;timestamp;P1;durP1;ratioP1;P2;durP2;ratioP2
735;SDS011;352;48.626;9.238;2023-05-10T00:01:27;2.53;;;2.10;;
735;SDS011;352;48.626;9.238;2023-05-10T00:03:53;2.50;;;2.30;;
735;SDS011;352;48.626;9.238;2023-05-10T00:06:20;3.00;;;2.37;;
735;SDS011;352;48.626;9.238;2023-05-10T00:08:47;2.17;;;2.07;;
735;SDS011;352;48.626;9.238;2023-05-10T00:11:14;2.50;;;2.17;;
735;SDS011;352;48.626;9.238;2023-05-10T00:13:42;2.40;;;2.20;;
735;SDS011;352;48.626;9.238;2023-05-10T00:16:08;3.60;;;2.50;;
735;SDS011;352;48.626;9.238;2023-05-10T00:18:37;2.30;;;2.10;;
735;SDS011;352;48.626;9.238;2023-05-10T00:21:04;3.13;;;2.10;;
735;SDS011;352;48.626;9.238;2023-05-10T00:23:30;1.83;;;1.73;;
735;SDS011;352;48.626;9.238;2023-05-10T00:25:57;2.23;;;2.13;;
735;SDS011;352;48.626;9.238;2023-05-10T00:28:24;10.00;;;3.97;;
735;SDS011;352;48.626;9.238;2023-05-10T00:30:54;2.47;;;2.27;;
735;SDS011;352;48.626;9.238;2023-05-10T00:33:21;2.17;;;2.00;;
735;SDS011;352;48.626;9.238;2023-05-10T00:35:48;4.23;;;2.80;;
735;SDS011;352;48.626;9.238;2023-05-10T00:38:15;5.23;;;2.30;;
735;SDS011;352;48.626;9.238;2023-05-10T00:40:42;2.70;;;2.50;;
735;SDS011;352;48.626;9.238;2023-05-10T00:43:09;1.73;;;1.60;;
735;SDS011;352;48.626;9.238;2023-05-10T00:45:36;2.40;;;2.17;;
735;SDS011;352;48.626;9.238;2023-05-10T00:48:05;2.20;;;2.00;;
735;SDS011;352;48.626;9.238;2023-05-10T00:50:32;2.20;;;2.00;;
735;SDS011;352;48.626;9.238;2023-05-10T00:52:59;2.50;;;1.97;;
735;SDS011;352;48.626;9.238;2023-05-10T00:55:27;2.03;;;1.83;;
735;SDS011;352;48.626;9.238;2023-05-10T00:57:55;2.30;;;2.10;;
735;SDS011;352;48.626;9.238;2023-05-10T01:00:22;2.43;;;1.63;;
735;SDS011;352;48.626;9.238;2023-05-10T01:02:49;4.43;;;2.00;;
735;SDS011;352;48.626;9.238;2023-05-10T01:05:17;1.87;;;1.73;;
735;SDS011;352;48.626;9.238;2023-05-10T01:07:43;3.10;;;1.60;;
735;SDS011;352;48.626;9.238;2023-05-10T01:10:10;1.57;;;1.20;;
735;SDS011;352;48.626;9.238;2023-05-10T01:12:38;1.20;;;1.07;;
735;SDS011;352;48.626;9.238;2023-05-10T01:15:06;2.20;;;2.10;;
735;SDS011;352;48.626;9.238;2023-05-10T01:17:36;3.00;;;1.30;;
735;SDS011;352;48.626;9.238;2023-05-10T01:20:05;1.30;;;1.20;;
735;SDS011;352;48.626;9.238;2023-05-10T01:22:42;2.47;;;2.17;;
735;SDS011;352;48.626;9.238;2023-05-10T01:25:36;1.97;;;1.80;;
735;SDS011;352;48.626;9.238;2023-05-10T01:28:25;8.00;;;1.37;;
735;SDS011;352;48.626;9.238;2023-05-10T01:31:21;1.00;;;0.80;;
735;SDS011;352;48.626;9.238;2023-05-10T01:33:59;3.23;;;1.10;;
735;SDS011;352;48.626;9.238;2023-05-10T01:36:32;0.80;;;0.70;;
735;SDS011;352;48.626;9.238;2023-05-10T01:39:06;0.80;;;0.80;;
735;SDS011;352;48.626;9.238;2023-05-10T01:41:40;1.10;;;0.80;;
735;SDS011;352;48.626;9.238;2023-05-10T01:44:16;1.63;;;0.63;;
735;SDS011;352;48.626;9.238;2023-05-10T01:46:48;0.87;;;0.80;;
735;SDS011;352;48.626;9.238;2023-05-10T01:49:21;1.73;;;0.73;;
735;SDS011;352;48.626;9.238;2023-05-10T01:51:51;0.90;;;0.80;;
735;SDS011;352;48.626;9.238;2023-05-10T01:54:21;5.47;;;0.83;;
735;SDS011;352;48.626;9.238;2023-05-10T01:56:52;1.53;;;0.73;;
735;SDS011;352;48.626;9.238;2023-05-10T01:59:23;0.97;;;0.63;;
735;SDS011;352;48.626;9.238;2023-05-10T02:01:56;3.40;;;0.90;;
735;SDS011;352;48.626;9.238;2023-05-10T02:04:26;0.80;;;0.80;;
735;SDS011;352;48.626;9.238;2023-05-10T02:06:53;0.70;;;0.70;;
735;SDS011;352;48.626;9.238;2023-05-10T02:09:22;0.80;;;0.60;;
735;SDS011;352;48.626;9.238;2023-05-10T02:11:49;1.53;;;0.77;;
735;SDS011;352;48.626;9.238;2023-05-10T02:14:16;2.50;;;0.70;;
735;SDS011;352;48.626;9.238;2023-05-10T02:16:46;0.70;;;0.70;;
735;SDS011;352;48.626;9.238;2023-05-10T02:19:13;0.70;;;0.60;;
735;SDS011;352;48.626;9.238;2023-05-10T02:21:43;0.97;;;0.77;;
735;SDS011;352;48.626;9.238;2023-05-10T02:24:11;5.70;;;0.90;;
735;SDS011;352;48.626;9.238;2023-05-10T02:26:39;2.50;;;0.60;;
735;SDS011;352;48.626;9.238;2023-05-10T02:29:06;1.13;;;0.90;;
735;SDS011;352;48.626;9.238;2023-05-10T02:31:36;1.30;;;0.83;;
735;SDS011;352;48.626;9.238;2023-05-10T02:34:03;4.03;;;1.50;;
735;SDS011;352;48.626;9.238;2023-05-10T02:36:31;0.80;;;0.80;;
735;SDS011;352;48.626;9.238;2023-05-10T02:39:00;0.50;;;0.50;;
735;SDS011;352;48.626;9.238;2023-05-10T02:41:28;2.63;;;0.70;;
735;SDS011;352;48.626;9.238;2023-05-10T02:43:59;2.40;;;0.60;;
735;SDS011;352;48.626;9.238;2023-05-10T02:46:27;1.63;;;0.77;;
735;SDS011;352;48.626;9.238;2023-05-10T02:48:54;1.73;;;0.70;;
735;SDS011;352;48.626;9.238;2023-05-10T02:51:21;3.30;;;0.67;;
735;SDS011;352;48.626;9.238;2023-05-10T02:53:51;0.80;;;0.60;;
735;SDS011;352;48.626;9.238;2023-05-10T02:56:23;2.20;;;0.60;;
735;SDS011;352;48.626;9.238;2023-05-10T02:58:51;2.20;;;0.70;;
735;SDS011;352;48.626;9.238;2023-05-10T03:01:18;2.53;;;0.60;;
735;SDS011;352;48.626;9.238;2023-05-10T03:03:45;0.60;;;0.60;;
735;SDS011;352;48.626;9.238;2023-05-10T03:06:12;1.53;;;0.90;;
735;SDS011;352;48.626;9.238;2023-05-10T03:08:39;0.90;;;0.60;;
735;SDS011;352;48.626;9.238;2023-05-10T03:11:10;0.70;;;0.70;;
735;SDS011;352;48.626;9.238;2023-05-10T03:13:52;0.80;;;0.80;;
735;SDS011;352;48.626;9.238;2023-05-10T03:16:32;1.37;;;0.70;;
735;SDS011;352;48.626;9.238;2023-05-10T03:19:04;1.40;;;0.80;;
735;SDS011;352;48.626;9.238;2023-05-10T03:21:37;1.60;;;0.70;;
735;SDS011;352;48.626;9.238;2023-05-10T03:24:10;0.97;;;0.90;;
735;SDS011;352;48.626;9.238;2023-05-10T03:26:40;1.70;;;0.83;;
735;SDS011;352;48.626;9.238;2023-05-10T03:29:10;1.67;;;0.80;;
735;SDS011;352;48.626;9.238;2023-05-10T03:31:38;1.73;;;0.60;;
735;SDS011;352;48.626;9.238;2023-05-10T03:34:05;1.73;;;0.90;;
735;SDS011;352;48.626;9.238;2023-05-10T03:36:32;0.80;;;0.80;;
735;SDS011;352;48.626;9.238;2023-05-10T03:38:59;0.87;;;0.80;;
735;SDS011;352;48.626;9.238;2023-05-10T03:41:25;2.83;;;0.90;;
735;SDS011;352;48.626;9.238;2023-05-10T03:43:53;3.70;;;0.80;;
735;SDS011;352;48.626;9.238;2023-05-10T03:46:21;1.10;;;0.90;;
735;SDS011;352;48.626;9.238;2023-05-10T03:48:47;2.57;;;1.00;;
735;SDS011;352;48.626;9.238;2023-05-10T03:51:14;1.63;;;1.00;;
735;SDS011;352;48.626;9.238;2023-05-10T03:53:41;1.33;;;1.03;;
735;SDS011;352;48.626;9.238;2023-05-10T03:56:08;3.43;;;1.00;;
735;SDS011;352;48.626;9.238;2023-05-10T03:58:34;1.30;;;1.00;;
735;SDS011;352;48.626;9.238;2023-05-10T04:01:01;1.43;;;0.93;;
735;SDS011;352;48.626;9.238;2023-05-10T04:03:29;0.93;;;0.90;;
735;SDS011;352;48.626;9.238;2023-05-10T04:05:59;1.10;;;1.00;;
735;SDS011;352;48.626;9.238;2023-05-10T04:08:26;1.20;;;1.10;;
735;SDS011;352;48.626;9.238;2023-05-10T04:10:53;1.10;;;1.00;;
735;SDS011;352;48.626;9.238;2023-05-10T04:13:20;1.50;;;1.40;;
735;SDS011;352;48.626;9.238;2023-05-10T04:15:47;1.97;;;1.10;;
735;SDS011;352;48.626;9.238;2023-05-10T04:18:14;4.20;;;1.03;;
735;SDS011;352;48.626;9.238;2023-05-10T04:20:43;2.93;;;1.07;;
735;SDS011;352;48.626;9.238;2023-05-10T04:23:10;1.67;;;1.50;;
735;SDS011;352;48.626;9.238;2023-05-10T04:25:36;1.40;;;1.30;;
735;SDS011;352;48.626;9.238;2023-05-10T04:28:03;2.47;;;1.37;;
735;SDS011;352;48.626;9.238;2023-05-10T04:30:30;1.50;;;1.40;;
735;SDS011;352;48.626;9.238;2023-05-10T04:32:57;1.30;;;1.20;;
735;SDS011;352;48.626;9.238;2023-05-10T04:35:26;1.60;;;1.50;;
735;SDS011;352;48.626;9.238;2023-05-10T04:37:54;2.27;;;1.40;;
735;SDS011;352;48.626;9.238;2023-05-10T04:40:21;1.70;;;1.60;;
735;SDS011;352;48.626;9.238;2023-05-10T04:42:47;2.80;;;1.20;;
735;SDS011;352;48.626;9.238;2023-05-10T04:45:14;1.30;;;1.20;;
735;SDS011;352;48.626;9.238;2023-05-10T04:47:41;1.33;;;1.23;;
735;SDS011;352;48.626;9.238;2023-05-10T04:50:08;1.13;;;1.07;;
735;SDS011;352;48.626;9.238;2023-05-10T04:52:35;4.70;;;1.70;;
735;SDS011;352;48.626;9.238;2023-05-10T04:55:04;2.37;;;2.17;;
735;SDS011;352;48.626;9.238;2023-05-10T04:57:32;3.70;;;3.40;;
735;SDS011;352;48.626;9.238;2023-05-10T05:00:00;5.77;;;5.37;;
735;SDS011;352;48.626;9.238;2023-05-10T05:02:27;7.80;;;7.20;;
735;SDS011;352;48.626;9.238;2023-05-10T05:04:55;5.47;;;4.97;;
735;SDS011;352;48.626;9.238;2023-05-10T05:07:23;3.70;;;2.60;;
735;SDS011;352;48.626;9.238;2023-05-10T05:09:50;5.13;;;2.30;;
735;SDS011;352;48.626;9.238;2023-05-10T05:12:18;2.93;;;2.70;;
735;SDS011;352;48.626;9.238;2023-05-10T05:14:45;3.30;;;3.10;;
735;SDS011;352;48.626;9.238;2023-05-10T05:17:11;2.43;;;2.07;;
735;SDS011;352;48.626;9.238;2023-05-10T05:19:38;1.60;;;1.50;;
735;SDS011;352;48.626;9.238;2023-05-10T05:22:06;2.40;;;2.10;;
735;SDS011;352;48.626;9.238;2023-05-10T05:24:34;2.43;;;2.07;;
735;SDS011;352;48.626;9.238;2023-05-10T05:27:03;4.20;;;3.90;;
735;SDS011;352;48.626;9.238;2023-05-10T05:29:32;3.50;;;3.20;;
735;SDS011;352;48.626;9.238;2023-05-10T05:31:59;2.07;;;1.97;;
735;SDS011;352;48.626;9.238;2023-05-10T05:34:25;1.93;;;1.83;;
735;SDS011;352;48.626;9.238;2023-05-10T05:36:52;2.03;;;1.93;;
735;SDS011;352;48.626;9.238;2023-05-10T05:39:19;2.00;;;1.90;;
735;SDS011;352;48.626;9.238;2023-05-10T05:41:45;6.33;;;2.50;;
735;SDS011;352;48.626;9.238;2023-05-10T05:44:12;2.70;;;1.70;;
735;SDS011;352;48.626;9.238;2023-05-10T05:46:40;2.13;;;1.93;;
735;SDS011;352;48.626;9.238;2023-05-10T05:49:07;2.07;;;1.50;;
735;SDS011;352;48.626;9.238;2023-05-10T05:51:34;1.70;;;1.60;;
735;SDS011;352;48.626;9.238;2023-05-10T05:54:00;1.60;;;1.50;;
735;SDS011;352;48.626;9.238;2023-05-10T05:56:29;1.77;;;1.67;;
735;SDS011;352;48.626;9.238;2023-05-10T05:58:55;3.00;;;1.90;;
735;SDS011;352;48.626;9.238;2023-05-10T06:01:22;2.57;;;1.70;;
735;SDS011;352;48.626;9.238;2023-05-10T06:03:50;2.07;;;1.77;;
735;SDS011;352;48.626;9.238;2023-05-10T06:06:17;7.17;;;2.03;;
735;SDS011;352;48.626;9.238;2023-05-10T06:08:43;1.37;;;1.27;;
735;SDS011;352;48.626;9.238;2023-05-10T06:11:10;4.57;;;1.90;;
735;SDS011;352;48.626;9.238;2023-05-10T06:13:37;3.97;;;1.90;;
735;SDS011;352;48.626;9.238;2023-05-10T06:16:04;1.67;;;1.57;;
735;SDS011;352;48.626;9.238;2023-05-10T06:18:31;2.20;;;2.00;;
735;SDS011;352;48.626;9.238;2023-05-10T06:20:59;1.80;;;1.70;;
735;SDS011;352;48.626;9.238;2023-05-10T06:23:26;3.00;;;2.70;;
735;SDS011;352;48.626;9.238;2023-05-10T06:25:52;1.60;;;1.50;;
735;SDS011;352;48.626;9.238;2023-05-10T06:28:19;4.93;;;2.43;;
735;SDS011;352;48.626;9.238;2023-05-10T06:30:46;3.53;;;2.90;;
735;SDS011;352;48.626;9.238;2023-05-10T06:33:12;2.10;;;2.00;;
735;SDS011;352;48.626;9.238;2023-05-10T06:35:40;3.03;;;2.17;;
735;SDS011;352;48.626;9.238;2023-05-10T06:38:09;4.07;;;2.10;;
735;SDS011;352;48.626;9.238;2023-05-10T06:40:35;2.80;;;2.60;;
735;SDS011;352;48.626;9.238;2023-05-10T06:43:02;1.70;;;1.60;;
735;SDS011;352;48.626;9.238;2023-05-10T06:45:29;2.50;;;2.30;;
735;SDS011;352;48.626;9.238;2023-05-10T06:47:56;2.93;;;2.73;;
735;SDS011;352;48.626;9.238;2023-05-10T06:50:22;3.13;;;2.83;;
735;SDS011;352;48.626;9.238;2023-05-10T06:52:49;3.90;;;1.90;;
735;SDS011;352;48.626;9.238;2023-05-10T06:55:18;2.20;;;2.10;;
735;SDS011;352;48.626;9.238;2023-05-10T06:57:44;1.87;;;1.77;;
735;SDS011;352;48.626;9.238;2023-05-10T07:00:13;1.50;;;1.40;;
735;SDS011;352;48.626;9.238;2023-05-10T07:02:40;2.10;;;1.57;;
735;SDS011;352;48.626;9.238;2023-05-10T07:05:07;1.90;;;1.40;;
735;SDS011;352;48.626;9.238;2023-05-10T07:07:34;2.53;;;1.37;;
735;SDS011;352;48.626;9.238;2023-05-10T07:10:01;1.67;;;1.47;;
735;SDS011;352;48.626;9.238;2023-05-10T07:12:29;3.00;;;1.40;;
735;SDS011;352;48.626;9.238;2023-05-10T07:14:56;1.53;;;1.43;;
735;SDS011;352;48.626;9.238;2023-05-10T07:17:23;1.47;;;1.20;;
735;SDS011;352;48.626;9.238;2023-05-10T07:19:49;1.47;;;1.37;;
735;SDS011;352;48.626;9.238;2023-05-10T07:22:16;7.53;;;2.70;;
735;SDS011;352;48.626;9.238;2023-05-10T07:24:43;2.20;;;2.00;;
735;SDS011;352;48.626;9.238;2023-05-10T07:27:10;2.00;;;1.53;;
735;SDS011;352;48.626;9.238;2023-05-10T07:29:39;2.30;;;1.70;;
735;SDS011;352;48.626;9.238;2023-05-10T07:32:05;1.40;;;1.30;;
735;SDS011;352;48.626;9.238;2023-05-10T07:34:32;2.43;;;1.70;;
735;SDS011;352;48.626;9.238;2023-05-10T07:36:59;1.07;;;1.07;;
735;SDS011;352;48.626;9.238;2023-05-10T07:39:26;2.80;;;1.20;;
735;SDS011;352;48.626;9.238;2023-05-10T07:41:53;1.50;;;1.40;;
735;SDS011;352;48.626;9.238;2023-05-10T07:44:19;1.57;;;1.47;;
735;SDS011;352;48.626;9.238;2023-05-10T07:46:47;1.50;;;1.40;;
735;SDS011;352;48.626;9.238;2023-05-10T07:49:15;1.40;;;1.30;;
735;SDS011;352;48.626;9.238;2023-05-10T07:51:42;1.87;;;1.33;;
735;SDS011;352;48.626;9.238;2023-05-10T07:54:09;1.63;;;1.30;;
735;SDS011;352;48.626;9.238;2023-05-10T07:56:35;1.40;;;1.30;;
735;SDS011;352;48.626;9.238;2023-05-10T07:59:02;2.83;;;1.50;;
735;SDS011;352;48.626;9.238;2023-05-10T08:01:30;1.57;;;1.47;;
735;SDS011;352;48.626;9.238;2023-05-10T08:03:59;1.47;;;1.10;;
735;SDS011;352;48.626;9.238;2023-05-10T08:06:26;1.20;;;1.10;;
735;SDS011;352;48.626;9.238;2023-05-10T08:08:55;2.10;;;1.43;;
735;SDS011;352;48.626;9.238;2023-05-10T08:11:22;1.50;;;1.40;;
735;SDS011;352;48.626;9.238;2023-05-10T08:13:49;1.73;;;1.07;;
735;SDS011;352;48.626;9.238;2023-05-10T08:16:17;1.37;;;1.27;;
735;SDS011;352;48.626;9.238;2023-05-10T08:18:44;1.60;;;1.40;;
735;SDS011;352;48.626;9.238;2023-05-10T08:21:14;1.20;;;1.10;;
735;SDS011;352;48.626;9.238;2023-05-10T08:23:41;1.33;;;1.00;;
735;SDS011;352;48.626;9.238;2023-05-10T08:26:08;1.10;;;1.00;;
735;SDS011;352;48.626;9.238;2023-05-10T08:28:35;3.80;;;1.40;;
735;SDS011;352;48.626;9.238;2023-05-10T08:31:02;1.77;;;1.20;;
735;SDS011;352;48.626;9.238;2023-05-10T08:33:29;2.10;;;0.90;;
735;SDS011;352;48.626;9.238;2023-05-10T08:35:55;1.10;;;1.00;;
735;SDS011;352;48.626;9.238;2023-05-10T08:38:23;1.30;;;1.20;;
735;SDS011;352;48.626;9.238;2023-05-10T08:40:50;1.30;;;1.20;;
735;SDS011;352;48.626;9.238;2023-05-10T08:43:21;1.33;;;1.00;;
735;SDS011;352;48.626;9.238;2023-05-10T08:45:51;1.60;;;1.17;;
735;SDS011;352;48.626;9.238;2023-05-10T08:48:20;3.53;;;1.00;;
735;SDS011;352;48.626;9.238;2023-05-10T08:50:49;1.20;;;1.10;;
735;SDS011;352;48.626;9.238;2023-05-10T08:53:20;2.97;;;0.90;;
735;SDS011;352;48.626;9.238;2023-05-10T08:55:50;0.90;;;0.90;;
735;SDS011;352;48.626;9.238;2023-05-10T08:58:17;2.57;;;1.07;;
735;SDS011;352;48.626;9.238;2023-05-10T09:00:45;3.60;;;1.30;;
735;SDS011;352;48.626;9.238;2023-05-10T09:03:13;1.17;;;1.07;;
735;SDS011;352;48.626;9.238;2023-05-10T09:05:40;2.13;;;1.40;;
735;SDS011;352;48.626;9.238;2023-05-10T09:08:07;1.10;;;1.00;;
735;SDS011;352;48.626;9.238;2023-05-10T09:10:34;1.27;;;1.17;;
735;SDS011;352;48.626;9.238;2023-05-10T09:13:04;1.17;;;1.10;;
735;SDS011;352;48.626;9.238;2023-05-10T09:15:31;1.13;;;1.00;;
735;SDS011;352;48.626;9.238;2023-05-10T09:17:58;4.43;;;2.17;;
735;SDS011;352;48.626;9.238;2023-05-10T09:20:27;1.30;;;1.20;;
735;SDS011;352;48.626;9.238;2023-05-10T09:22:53;1.20;;;1.10;;
735;SDS011;352;48.626;9.238;2023-05-10T09:25:20;4.13;;;1.23;;
735;SDS011;352;48.626;9.238;2023-05-10T09:27:47;2.07;;;1.23;;
735;SDS011;352;48.626;9.238;2023-05-10T09:30:16;2.93;;;1.40;;
735;SDS011;352;48.626;9.238;2023-05-10T09:32:44;2.13;;;1.10;;
735;SDS011;352;48.626;9.238;2023-05-10T09:35:13;0.93;;;0.93;;
735;SDS011;352;48.626;9.238;2023-05-10T09:37:42;1.27;;;1.10;;
735;SDS011;352;48.626;9.238;2023-05-10T09:40:11;1.20;;;1.10;;
735;SDS011;352;48.626;9.238;2023-05-10T09:42:39;1.20;;;1.10;;
735;SDS011;352;48.626;9.238;2023-05-10T09:45:08;1.13;;;1.03;;
735;SDS011;352;48.626;9.238;2023-05-10T09:47:36;1.40;;;1.30;;
735;SDS011;352;48.626;9.238;2023-05-10T09:50:04;0.97;;;0.97;;
735;SDS011;352;48.626;9.238;2023-05-10T09:52:35;1.00;;;1.00;;
735;SDS011;352;48.626;9.238;2023-05-10T09:55:12;1.73;;;1.27;;
735;SDS011;352;48.626;9.238;2023-05-10T09:57:39;0.83;;;0.83;;
735;SDS011;352;48.626;9.238;2023-05-10T10:00:07;2.73;;;1.30;;
735;SDS011;352;48.626;9.238;2023-05-10T10:02:36;0.80;;;0.80;;
735;SDS011;352;48.626;9.238;2023-05-10T10:05:03;0.83;;;0.83;;
735;SDS011;352;48.626;9.238;2023-05-10T10:07:32;3.63;;;3.43;;
735;SDS011;352;48.626;9.238;2023-05-10T10:10:00;2.80;;;0.97;;
735;SDS011;352;48.626;9.238;2023-05-10T10:12:27;0.87;;;0.87;;
735;SDS011;352;48.626;9.238;2023-05-10T10:14:54;1.70;;;0.83;;
735;SDS011;352;48.626;9.238;2023-05-10T10:17:22;0.97;;;0.87;;
735;SDS011;352;48.626;9.238;2023-05-10T10:19:52;0.90;;;0.73;;
735;SDS011;352;48.626;9.238;2023-05-10T10:22:19;0.93;;;0.93;;
735;SDS011;352;48.626;9.238;2023-05-10T10:24:46;0.90;;;0.83;;
735;SDS011;352;48.626;9.238;2023-05-10T10:27:16;1.60;;;1.10;;
735;SDS011;352;48.626;9.238;2023-05-10T10:29:51;1.83;;;1.10;;
735;SDS011;352;48.626;9.238;2023-05-10T10:32:26;1.30;;;1.20;;
735;SDS011;352;48.626;9.238;2023-05-10T10:35:02;1.20;;;1.20;;
735;SDS011;352;48.626;9.238;2023-05-10T10:37:45;1.20;;;1.10;;
735;SDS011;352;48.626;9.238;2023-05-10T10:40:22;0.97;;;0.97;;
735;SDS011;352;48.626;9.238;2023-05-10T10:42:50;1.30;;;1.20;;
735;SDS011;352;48.626;9.238;2023-05-10T10:45:18;1.30;;;1.30;;
735;SDS011;352;48.626;9.238;2023-05-10T10:47:46;4.43;;;1.40;;
735;SDS011;352;48.626;9.238;2023-05-10T10:50:14;0.90;;;0.90;;
735;SDS011;352;48.626;9.238;2023-05-10T10:52:42;2.50;;;1.47;;
735;SDS011;352;48.626;9.238;2023-05-10T10:55:09;1.27;;;1.00;;
735;SDS011;352;48.626;9.238;2023-05-10T10:57:47;0.90;;;0.90;;
735;SDS011;352;48.626;9.238;2023-05-10T11:00:20;1.20;;;1.20;;
735;SDS011;352;48.626;9.238;2023-05-10T11:02:53;2.70;;;1.50;;
735;SDS011;352;48.626;9.238;2023-05-10T11:08:12;1.33;;;1.20;;
735;SDS011;352;48.626;9.238;2023-05-10T11:11:02;1.13;;;1.13;;
735;SDS011;352;48.626;9.238;2023-05-10T11:13:32;2.03;;;1.53;;
735;SDS011;352;48.626;9.238;2023-05-10T11:16:09;1.50;;;1.40;;
735;SDS011;352;48.626;9.238;2023-05-10T11:18:40;1.50;;;1.40;;
735;SDS011;352;48.626;9.238;2023-05-10T11:21:19;1.80;;;1.43;;
735;SDS011;352;48.626;9.238;2023-05-10T11:23:49;1.30;;;1.30;;
735;SDS011;352;48.626;9.238;2023-05-10T11:26:17;1.37;;;1.30;;
735;SDS011;352;48.626;9.238;2023-05-10T11:28:46;1.10;;;1.10;;
735;SDS011;352;48.626;9.238;2023-05-10T11:31:13;2.90;;;1.80;;
735;SDS011;352;48.626;9.238;2023-05-10T11:33:44;1.90;;;1.57;;
735;SDS011;352;48.626;9.238;2023-05-10T11:36:11;1.97;;;1.30;;
735;SDS011;352;48.626;9.238;2023-05-10T11:38:40;1.97;;;1.60;;
735;SDS011;352;48.626;9.238;2023-05-10T11:41:07;2.03;;;0.90;;
735;SDS011;352;48.626;9.238;2023-05-10T11:43:36;1.47;;;1.13;;
735;SDS011;352;48.626;9.238;2023-05-10T11:46:04;1.63;;;1.53;;
735;SDS011;352;48.626;9.238;2023-05-10T11:48:32;1.13;;;0.97;;
735;SDS011;352;48.626;9.238;2023-05-10T11:50:58;1.23;;;1.13;;
735;SDS011;352;48.626;9.238;2023-05-10T11:53:27;1.10;;;1.03;;
735;SDS011;352;48.626;9.238;2023-05-10T11:55:55;1.27;;;1.17;;
735;SDS011;352;48.626;9.238;2023-05-10T11:58:29;5.30;;;1.40;;
735;SDS011;352;48.626;9.238;2023-05-10T12:00:56;1.40;;;1.30;;
735;SDS011;352;48.626;9.238;2023-05-10T12:03:23;1.33;;;1.30;;
735;SDS011;352;48.626;9.238;2023-05-10T12:05:50;4.57;;;1.37;;
735;SDS011;352;48.626;9.238;2023-05-10T12:08:20;1.40;;;1.20;;
735;SDS011;352;48.626;9.238;2023-05-10T12:10:47;1.30;;;1.20;;
735;SDS011;352;48.626;9.238;2023-05-10T12:13:16;1.73;;;1.50;;
735;SDS011;352;48.626;9.238;2023-05-10T12:15:43;1.83;;;1.23;;
735;SDS011;352;48.626;9.238;2023-05-10T12:18:10;3.70;;;1.30;;
735;SDS011;352;48.626;9.238;2023-05-10T12:20:37;2.27;;;1.20;;
735;SDS011;352;48.626;9.238;2023-05-10T12:23:05;1.37;;;1.23;;
735;SDS011;352;48.626;9.238;2023-05-10T12:25:34;1.40;;;1.30;;
735;SDS011;352;48.626;9.238;2023-05-10T12:28:03;3.77;;;1.60;;
735;SDS011;352;48.626;9.238;2023-05-10T12:30:32;1.33;;;1.20;;
735;SDS011;352;48.626;9.238;2023-05-10T12:33:00;3.40;;;1.13;;
735;SDS011;352;48.626;9.238;2023-05-10T12:35:29;3.33;;;1.40;;
735;SDS011;352;48.626;9.238;2023-05-10T12:37:56;1.70;;;1.60;;
735;SDS011;352;48.626;9.238;2023-05-10T12:40:23;1.17;;;1.17;;
735;SDS011;352;48.626;9.238;2023-05-10T12:42:50;1.30;;;1.20;;
735;SDS011;352;48.626;9.238;2023-05-10T12:45:17;6.30;;;1.43;;
735;SDS011;352;48.626;9.238;2023-05-10T12:47:46;4.50;;;1.73;;
735;SDS011;352;48.626;9.238;2023-05-10T12:50:12;2.50;;;1.80;;
735;SDS011;352;48.626;9.238;2023-05-10T12:52:39;1.40;;;1.30;;
735;SDS011;352;48.626;9.238;2023-05-10T12:55:06;2.07;;;1.33;;
735;SDS011;352;48.626;9.238;2023-05-10T12:57:33;2.03;;;1.47;;
735;SDS011;352;48.626;9.238;2023-05-10T13:00:00;2.03;;;1.27;;
735;SDS011;352;48.626;9.238;2023-05-10T13:02:26;2.30;;;1.50;;
735;SDS011;352;48.626;9.238;2023-05-10T13:04:54;1.70;;;1.60;;
735;SDS011;352;48.626;9.238;2023-05-10T13:07:21;1.73;;;1.40;;
735;SDS011;352;48.626;9.238;2023-05-10T13:09:48;1.40;;;1.30;;
735;SDS011;352;48.626;9.238;2023-05-10T13:12:14;1.73;;;1.63;;
735;SDS011;352;48.626;9.238;2023-05-10T13:14:41;1.90;;;1.80;;
735;SDS011;352;48.626;9.238;2023-05-10T13:17:08;1.93;;;1.60;;
735;SDS011;352;48.626;9.238;2023-05-10T13:19:35;6.00;;;1.67;;
735;SDS011;352;48.626;9.238;2023-05-10T13:22:03;1.83;;;1.60;;
735;SDS011;352;48.626;9.238;2023-05-10T13:24:29;1.40;;;1.30;;
735;SDS011;352;48.626;9.238;2023-05-10T13:26:56;3.60;;;2.20;;
735;SDS011;352;48.626;9.238;2023-05-10T13:29:23;2.20;;;1.73;;
735;SDS011;352;48.626;9.238;2023-05-10T13:31:49;1.50;;;1.40;;
735;SDS011;352;48.626;9.238;2023-05-10T13:34:16;2.57;;;1.60;;
735;SDS011;352;48.626;9.238;2023-05-10T13:36:45;2.30;;;1.70;;
735;SDS011;352;48.626;9.238;2023-05-10T13:39:13;4.60;;;1.50;;
735;SDS011;352;48.626;9.238;2023-05-10T13:41:40;3.70;;;1.30;;
735;SDS011;352;48.626;9.238;2023-05-10T13:44:07;2.17;;;1.70;;
735;SDS011;352;48.626;9.238;2023-05-10T13:46:34;1.30;;;1.20;;
735;SDS011;352;48.626;9.238;2023-05-10T13:49:00;1.97;;;1.57;;
735;SDS011;352;48.626;9.238;2023-05-10T13:51:27;1.43;;;1.33;;
735;SDS011;352;48.626;9.238;2023-05-10T13:53:54;1.70;;;1.60;;
735;SDS011;352;48.626;9.238;2023-05-10T13:56:22;4.27;;;1.30;;
735;SDS011;352;48.626;9.238;2023-05-10T13:58:48;2.13;;;1.70;;
735;SDS011;352;48.626;9.238;2023-05-10T14:01:15;1.90;;;1.50;;
735;SDS011;352;48.626;9.238;2023-05-10T14:03:42;2.70;;;1.40;;
735;SDS011;352;48.626;9.238;2023-05-10T14:06:08;2.00;;;1.87;;
735;SDS011;352;48.626;9.238;2023-05-10T14:08:35;1.73;;;1.63;;
735;SDS011;352;48.626;9.238;2023-05-10T14:11:02;3.00;;;1.90;;
735;SDS011;352;48.626;9.238;2023-05-10T14:13:30;2.10;;;1.80;;
735;SDS011;352;48.626;9.238;2023-05-10T14:15:57;3.23;;;2.00;;
735;SDS011;352;48.626;9.238;2023-05-10T14:18:25;1.60;;;1.50;;
735;SDS011;352;48.626;9.238;2023-05-10T14:20:52;2.43;;;2.00;;
735;SDS011;352;48.626;9.238;2023-05-10T14:23:19;4.83;;;2.17;;
735;SDS011;352;48.626;9.238;2023-05-10T14:25:48;2.40;;;1.60;;
735;SDS011;352;48.626;9.238;2023-05-10T14:28:15;2.57;;;1.93;;
735;SDS011;352;48.626;9.238;2023-05-10T14:30:44;2.00;;;1.90;;
735;SDS011;352;48.626;9.238;2023-05-10T14:33:11;2.00;;;1.90;;
735;SDS011;352;48.626;9.238;2023-05-10T14:35:38;2.10;;;1.90;;
735;SDS011;352;48.626;9.238;2023-05-10T14:38:05;2.00;;;1.53;;
735;SDS011;352;48.626;9.238;2023-05-10T14:40:31;2.10;;;1.97;;
735;SDS011;352;48.626;9.238;2023-05-10T14:42:58;2.57;;;2.40;;
735;SDS011;352;48.626;9.238;2023-05-10T14:45:25;3.00;;;2.10;;
735;SDS011;352;48.626;9.238;2023-05-10T14:47:53;2.47;;;1.90;;
735;SDS011;352;48.626;9.238;2023-05-10T14:50:20;2.10;;;2.00;;
735;SDS011;352;48.626;9.238;2023-05-10T14:52:46;2.13;;;1.93;;
735;SDS011;352;48.626;9.238;2023-05-10T14:55:14;1.80;;;1.60;;
735;SDS011;352;48.626;9.238;2023-05-10T14:57:41;2.00;;;1.90;;
735;SDS011;352;48.626;9.238;2023-05-10T15:00:09;2.10;;;2.00;;
735;SDS011;352;48.626;9.238;2023-05-10T15:02:37;4.57;;;2.00;;
735;SDS011;352;48.626;9.238;2023-05-10T15:05:05;2.63;;;1.90;;
735;SDS011;352;48.626;9.238;2023-05-10T15:07:32;2.63;;;1.70;;
735;SDS011;352;48.626;9.238;2023-05-10T15:09:59;2.63;;;1.83;;
735;SDS011;352;48.626;9.238;2023-05-10T15:12:25;1.63;;;1.50;;
735;SDS011;352;48.626;9.238;2023-05-10T15:14:52;2.30;;;1.40;;
735;SDS011;352;48.626;9.238;2023-05-10T15:17:19;3.40;;;2.10;;
735;SDS011;352;48.626;9.238;2023-05-10T15:19:46;2.40;;;1.30;;
735;SDS011;352;48.626;9.238;2023-05-10T15:22:15;2.60;;;1.67;;
735;SDS011;352;48.626;9.238;2023-05-10T15:24:42;7.20;;;6.60;;
735;SDS011;352;48.626;9.238;2023-05-10T15:27:08;3.37;;;3.13;;
735;SDS011;352;48.626;9.238;2023-05-10T15:29:35;3.80;;;2.10;;
735;SDS011;352;48.626;9.238;2023-05-10T15:32:02;2.50;;;2.40;;
735;SDS011;352;48.626;9.238;2023-05-10T15:34:28;2.37;;;2.20;;
735;SDS011;352;48.626;9.238;2023-05-10T15:36:55;2.30;;;2.10;;
735;SDS011;352;48.626;9.238;2023-05-10T15:39:23;1.97;;;1.63;;
735;SDS011;352;48.626;9.238;2023-05-10T15:41:50;2.57;;;2.37;;
735;SDS011;352;48.626;9.238;2023-05-10T15:44:17;4.70;;;2.07;;
735;SDS011;352;48.626;9.238;2023-05-10T15:46:43;2.50;;;2.30;;
735;SDS011;352;48.626;9.238;2023-05-10T15:49:10;2.27;;;2.13;;
735;SDS011;352;48.626;9.238;2023-05-10T15:51:37;3.30;;;2.03;;
735;SDS011;352;48.626;9.238;2023-05-10T15:54:04;4.03;;;2.60;;